Time;durP1;ratioP1;P1;durP2;ratioP2;P2;SDS_P1;SDS_P2;PMS_P1;PMS_P2;Temp;Humidity;BMP_temperature;BMP_pressure;BME280_temperature;BME280_humidity;BME280_pressure;Samples;Min_cycle;Max_cycle;Signal;HPM_P1;HPM_P2
2022/05/04 00:00:23;;;;;;;11.23;10.33;;;;;;;10.14;100.00;96931.00;5034267;28;21389;-56
2022/05/04 00:02:51;;;;;;;11.13;10.33;;;;;;;10.11;100.00;96934.88;5028419;28;20428;-53
2022/05/04 00:05:19;;;;;;;12.57;11.40;;;;;;;10.17;100.00;96930.63;5026433;28;20305;-52
2022/05/04 00:07:47;;;;;;;11.37;10.33;;;;;;;10.17;100.00;96935.94;5041103;28;20202;-51
2022/05/04 00:10:17;;;;;;;11.13;10.00;;;;;;;10.28;100.00;96939.91;5006672;28;20225;-53
2022/05/04 00:12:45;;;;;;;11.17;10.37;;;;;;;10.30;100.00;96943.19;5023488;28;20228;-54
2022/05/04 00:15:13;;;;;;;11.77;10.87;;;;;;;10.31;100.00;96942.19;5047048;28;20674;-54
2022/05/04 00:17:41;;;;;;;12.50;11.30;;;;;;;10.32;100.00;96943.81;5021692;28;20217;-58
2022/05/04 00:20:10;;;;;;;11.10;10.30;;;;;;;10.26;100.00;96941.94;5029412;28;20288;-56
2022/05/04 00:22:38;;;;;;;11.43;10.53;;;;;;;10.16;100.00;96938.78;5040509;28;20200;-56
2022/05/04 00:25:08;;;;;;;11.33;10.53;;;;;;;10.14;100.00;96937.16;5006368;28;20243;-54
2022/05/04 00:27:38;;;;;;;11.30;10.40;;;;;;;10.12;100.00;96933.03;5039291;28;20207;-58
2022/05/04 00:30:07;;;;;;;14.13;11.20;;;;;;;10.09;100.00;96944.81;5029009;28;20310;-56
2022/05/04 00:32:35;;;;;;;11.70;10.70;;;;;;;10.07;100.00;96944.19;5025401;28;20409;-57
2022/05/04 00:35:04;;;;;;;13.30;12.20;;;;;;;10.03;100.00;96945.56;5024784;28;21195;-51
2022/05/04 00:37:54;;;;;;;12.33;11.27;;;;;;;9.98;100.00;96948.78;5021109;28;20277;-56
2022/05/04 00:40:22;;;;;;;12.10;11.10;;;;;;;9.94;100.00;96946.66;5001151;28;20265;-53
2022/05/04 00:42:52;;;;;;;12.87;11.77;;;;;;;9.89;100.00;96946.41;5027329;28;20289;-57
2022/05/04 00:45:20;;;;;;;11.63;10.67;;;;;;;9.88;100.00;96936.84;5033649;28;20276;-54
2022/05/04 00:47:48;;;;;;;11.83;10.93;;;;;;;9.81;100.00;96942.03;5033620;28;20886;-53
2022/05/04 00:50:16;;;;;;;13.30;11.97;;;;;;;9.75;100.00;96945.44;5049404;28;20265;-51
2022/05/04 00:52:45;;;;;;;12.37;11.37;;;;;;;9.70;100.00;96940.72;5028665;28;20318;-55
2022/05/04 00:55:15;;;;;;;11.17;10.37;;;;;;;9.67;100.00;96941.06;5004041;28;20305;-57
2022/05/04 01:00:31;;;;;;;11.23;10.37;;;;;;;9.84;100.00;96941.66;5028443;28;20299;-57
2022/05/04 01:02:59;;;;;;;10.93;10.03;;;;;;;9.83;100.00;96934.72;5033910;28;20237;-53
2022/05/04 01:05:27;;;;;;;13.10;11.77;;;;;;;9.84;100.00;96936.38;5042172;28;20211;-58
2022/05/04 01:07:56;;;;;;;11.40;10.50;;;;;;;9.71;100.00;96939.69;5030154;28;20219;-55
2022/05/04 01:10:24;;;;;;;11.43;10.53;;;;;;;9.77;100.00;96932.81;5003673;28;20231;-54
2022/05/04 01:12:53;;;;;;;11.77;10.97;;;;;;;9.73;100.00;96940.34;5040233;28;20301;-52
2022/05/04 01:15:23;;;;;;;12.03;11.03;;;;;;;9.68;100.00;96937.44;5046506;28;20285;-55
2022/05/04 01:17:53;;;;;;;11.57;10.67;;;;;;;9.66;100.00;96939.41;5011484;28;20237;-57
2022/05/04 01:20:24;;;;;;;12.90;11.80;;;;;;;9.68;100.00;96943.53;5051248;28;20254;-51
2022/05/04 01:22:55;;;;;;;12.63;11.53;;;;;;;9.68;100.00;96945.34;5026380;28;20325;-53
2022/05/04 01:25:24;;;;;;;11.87;10.97;;;;;;;9.63;100.00;96942.41;5045120;28;20199;-52
2022/05/04 01:27:52;;;;;;;12.63;11.50;;;;;;;9.66;100.00;96942.06;5005554;28;20273;-57
2022/05/04 01:30:20;;;;;;;12.80;11.73;;;;;;;9.59;100.00;96946.44;5043823;28;20293;-53
2022/05/04 01:32:49;;;;;;;12.40;11.40;;;;;;;9.61;100.00;96950.56;5031527;28;20249;-57
2022/05/04 01:35:17;;;;;;;12.00;11.00;;;;;;;9.62;100.00;96949.56;5026371;28;20201;-53
2022/05/04 01:37:45;;;;;;;12.47;11.47;;;;;;;9.59;100.00;96952.56;5047141;28;20203;-57
2022/05/04 01:40:15;;;;;;;11.47;10.57;;;;;;;9.59;100.00;96939.34;5024680;28;21000;-52
2022/05/04 01:42:43;;;;;;;12.50;11.50;;;;;;;9.60;100.00;96938.34;5006840;28;20203;-53
2022/05/04 01:45:11;;;;;;;12.17;11.30;;;;;;;9.63;100.00;96947.72;5042009;28;20313;-53
2022/05/04 01:47:40;;;;;;;13.20;12.20;;;;;;;9.62;100.00;96946.91;5032000;28;20296;-51
2022/05/04 01:50:08;;;;;;;12.47;11.47;;;;;;;9.65;100.00;96940.41;5023704;28;20914;-54
2022/05/04 01:52:37;;;;;;;12.93;11.93;;;;;;;9.69;100.00;96942.50;5045013;28;20902;-52
2022/05/04 01:55:06;;;;;;;11.97;11.07;;;;;;;9.72;100.00;96941.34;5026755;28;20212;-52
2022/05/04 01:57:35;;;;;;;12.47;11.37;;;;;;;9.75;100.00;96948.06;5008613;28;20211;-56
2022/05/04 02:00:04;;;;;;;12.53;11.57;;;;;;;9.73;100.00;96947.44;5040880;28;20265;-56
2022/05/04 02:02:33;;;;;;;11.47;10.57;;;;;;;9.73;100.00;96942.97;5048540;28;20310;-53
2022/05/04 02:05:02;;;;;;;12.63;11.43;;;;;;;9.70;100.00;96957.38;5014314;28;20218;-56
2022/05/04 02:07:30;;;;;;;12.43;11.27;;;;;;;9.67;100.00;96949.81;5029925;28;20839;-55
2022/05/04 02:09:58;;;;;;;12.20;11.30;;;;;;;9.61;100.00;96949.72;5028743;28;20318;-56
2022/05/04 02:12:27;;;;;;;12.90;11.70;;;;;;;9.59;100.00;96946.44;5003326;28;20217;-50
2022/05/04 02:14:57;;;;;;;12.60;11.60;;;;;;;9.59;100.00;96946.44;5043905;28;20308;-57
2022/05/04 02:17:25;;;;;;;12.97;11.90;;;;;;;9.54;100.00;96947.81;5044526;28;20203;-54
2022/05/04 02:19:53;;;;;;;12.67;11.67;;;;;;;9.51;100.00;96950.81;5029922;28;20324;-57
2022/05/04 02:22:22;;;;;;;12.23;11.17;;;;;;;9.55;100.00;96953.94;5039315;28;21149;-53
2022/05/04 02:24:50;;;;;;;13.17;11.93;;;;;;;9.51;100.00;96965.88;5032226;28;20210;-55
2022/05/04 02:27:19;;;;;;;12.73;11.73;;;;;;;9.47;100.00;96956.66;5000175;28;20546;-52
2022/05/04 02:29:47;;;;;;;12.40;11.27;;;;;;;9.53;100.00;96969.16;5049106;28;20238;-57
2022/05/04 02:32:17;;;;;;;11.80;10.90;;;;;;;9.53;100.00;96967.34;5044529;28;20195;-54
2022/05/04 02:40:28;;;;;;;10.93;9.93;;;;;;;9.30;100.00;96969.25;4994858;28;20234;-54
2022/05/04 02:42:57;;;;;;;12.67;11.67;;;;;;;9.30;100.00;96969.25;4982339;28;20275;-59
2022/05/04 02:45:25;;;;;;;13.20;11.90;;;;;;;9.23;100.00;96964.66;4998105;28;20215;-51
2022/05/04 02:47:54;;;;;;;13.10;12.10;;;;;;;9.19;100.00;96967.88;5008677;28;20475;-56
2022/05/04 02:50:22;;;;;;;11.80;10.70;;;;;;;9.06;100.00;96961.34;4991697;28;20324;-54
2022/05/04 02:52:50;;;;;;;11.77;10.87;;;;;;;9.02;100.00;96957.44;5008052;28;20709;-55
2022/05/04 02:55:19;;;;;;;11.23;10.23;;;;;;;9.00;100.00;96959.44;5007432;28;20258;-51
2022/05/04 02:57:47;;;;;;;12.00;11.10;;;;;;;8.91;100.00;96966.66;4987571;28;20800;-58
2022/05/04 03:00:16;;;;;;;11.70;10.80;;;;;;;8.88;100.00;96968.81;4978753;28;20243;-54
2022/05/04 03:02:45;;;;;;;12.63;11.47;;;;;;;8.86;100.00;96965.53;5008642;28;20258;-55
2022/05/04 03:05:16;;;;;;;12.30;11.30;;;;;;;8.80;100.00;96962.59;4988908;28;20439;-58
2022/05/04 03:07:44;;;;;;;11.63;10.63;;;;;;;8.78;100.00;96971.69;5006628;28;20439;-54
2022/05/04 03:10:13;;;;;;;12.53;11.37;;;;;;;8.73;100.00;96980.16;5002047;28;20224;-51
2022/05/04 03:12:42;;;;;;;13.30;12.30;;;;;;;8.66;100.00;96973.91;4968271;28;20270;-54
2022/05/04 03:15:11;;;;;;;11.97;10.97;;;;;;;8.69;100.00;96974.41;4992029;28;20216;-54
2022/05/04 03:17:40;;;;;;;13.00;11.90;;;;;;;8.70;100.00;96972.56;5039607;28;20306;-57
2022/05/04 03:20:12;;;;;;;12.67;11.57;;;;;;;8.61;100.00;96976.28;5044470;28;20702;-50
2022/05/04 03:22:41;;;;;;;12.17;11.27;;;;;;;8.52;100.00;96978.16;5022390;28;20219;-50
2022/05/04 03:25:10;;;;;;;12.77;11.77;;;;;;;8.45;100.00;96971.91;5039996;28;20303;-51
2022/05/04 03:27:39;;;;;;;12.53;11.43;;;;;;;8.40;100.00;96967.97;5025810;28;20215;-55
2022/05/04 03:30:08;;;;;;;12.80;11.80;;;;;;;8.43;100.00;96973.88;4999314;28;20237;-54
2022/05/04 03:32:36;;;;;;;12.43;11.37;;;;;;;8.40;100.00;96975.09;5011607;28;20200;-57
2022/05/04 03:35:05;;;;;;;12.30;11.30;;;;;;;8.33;100.00;96969.66;5041974;28;20314;-53
2022/05/04 03:37:33;;;;;;;12.53;11.53;;;;;;;8.33;100.00;96979.38;5013110;28;20289;-54
2022/05/04 03:40:02;;;;;;;13.10;11.80;;;;;;;8.34;100.00;96975.78;5044514;28;20237;-54
2022/05/04 03:42:30;;;;;;;12.20;11.30;;;;;;;8.36;100.00;96976.44;5022696;28;20691;-54
2022/05/04 03:44:58;;;;;;;13.90;12.73;;;;;;;8.43;100.00;96976.53;5006803;28;20215;-54
2022/05/04 03:47:27;;;;;;;12.90;11.73;;;;;;;8.42;100.00;96982.81;5046424;28;20231;-55
2022/05/04 03:49:55;;;;;;;13.77;12.57;;;;;;;8.45;100.00;96970.09;5046306;28;20310;-55
2022/05/04 03:52:23;;;;;;;12.83;11.83;;;;;;;8.49;100.00;96976.69;5037670;28;20698;-58
2022/05/04 03:54:52;;;;;;;13.50;12.30;;;;;;;8.51;100.00;96979.13;5038836;28;20223;-57
2022/05/04 03:57:21;;;;;;;13.40;12.10;;;;;;;8.58;100.00;96977.47;5037231;28;20295;-57
2022/05/04 03:59:50;;;;;;;14.03;12.80;;;;;;;8.61;100.00;96979.75;5002282;28;20432;-55
2022/05/04 04:02:18;;;;;;;13.17;11.97;;;;;;;8.69;100.00;96981.50;5038906;28;20206;-57
2022/05/04 04:04:47;;;;;;;12.93;11.80;;;;;;;8.73;100.00;96980.16;5044530;28;20286;-53
2022/05/04 04:07:15;;;;;;;14.53;13.27;;;;;;;8.81;100.00;96987.19;5038097;28;20926;-55
2022/05/04 04:09:43;;;;;;;12.80;11.80;;;;;;;8.94;100.00;96984.78;5028732;28;20432;-52
2022/05/04 04:12:12;;;;;;;12.90;11.70;;;;;;;8.98;100.00;96983.41;5044778;28;22110;-54
2022/05/04 04:14:42;;;;;;;13.80;12.60;;;;;;;9.00;100.00;96975.28;5025280;28;20556;-57
2022/05/04 04:17:10;;;;;;;13.80;12.53;;;;;;;9.14;100.00;96975.53;5007927;28;20790;-55
2022/05/04 04:19:39;;;;;;;14.17;12.93;;;;;;;9.12;100.00;96973.03;5042837;28;20617;-51
2022/05/04 04:22:06;;;;;;;12.57;11.57;;;;;;;9.11;100.00;96974.03;5047625;28;20209;-54
2022/05/04 04:24:34;;;;;;;13.13;12.07;;;;;;;9.20;100.00;96978.25;5024969;28;20642;-53
2022/05/04 04:27:02;;;;;;;13.13;12.13;;;;;;;9.24;100.00;96976.88;5044343;28;20610;-52
2022/05/04 04:29:30;;;;;;;12.23;11.33;;;;;;;9.18;100.00;96976.81;5022658;28;20215;-51
2022/05/04 04:32:00;;;;;;;13.53;12.43;;;;;;;9.24;100.00;96987.44;4999942;28;20329;-54
2022/05/04 04:34:28;;;;;;;12.57;11.60;;;;;;;9.26;100.00;96980.16;5040491;28;20754;-58
2022/05/04 04:36:56;;;;;;;12.33;11.43;;;;;;;9.29;100.00;96978.19;5046627;28;20234;-55
2022/05/04 04:39:24;;;;;;;12.33;11.30;;;;;;;9.38;100.00;96977.09;5033873;28;20323;-59
2022/05/04 04:41:53;;;;;;;11.30;10.50;;;;;;;9.41;100.00;96982.03;5033836;28;20234;-55
2022/05/04 04:44:21;;;;;;;13.33;12.17;;;;;;;9.46;100.00;96981.44;5032373;28;20281;-58
2022/05/04 04:46:49;;;;;;;12.70;11.60;;;;;;;9.51;100.00;96987.03;5031228;28;20214;-51
2022/05/04 04:49:19;;;;;;;13.57;12.47;;;;;;;9.53;100.00;96988.50;4986226;28;20481;-53
2022/05/04 04:51:47;;;;;;;14.60;13.23;;;;;;;9.64;100.00;96975.81;5040481;28;20726;-53
2022/05/04 04:54:15;;;;;;;15.37;14.07;;;;;;;9.65;100.00;96983.56;5043519;28;20797;-57
2022/05/04 04:56:43;;;;;;;13.73;12.53;;;;;;;9.75;100.00;96991.25;5025686;28;20480;-57
2022/05/04 04:59:11;;;;;;;14.67;13.30;;;;;;;9.78;100.00;96985.56;5044152;28;20211;-55
2022/05/04 05:01:39;;;;;;;15.57;14.10;;;;;;;9.64;100.00;96991.69;5043892;28;20302;-53
2022/05/04 05:04:08;;;;;;;13.57;12.40;;;;;;;9.69;100.00;96991.97;5004351;28;20211;-55
2022/05/04 05:06:37;;;;;;;13.20;12.00;;;;;;;9.66;100.00;96984.38;5038748;28;20334;-55
2022/05/04 05:09:05;;;;;;;12.40;11.27;;;;;;;9.72;100.00;96983.66;5042360;28;20203;-55
2022/05/04 05:11:33;;;;;;;12.23;11.30;;;;;;;9.76;100.00;96990.22;5008597;28;20223;-53
2022/05/04 05:16:48;;;;;;;12.63;11.53;;;;;;;9.63;100.00;96995.31;5041760;28;20591;-52
2022/05/04 05:19:16;;;;;;;12.10;11.13;;;;;;;9.68;100.00;96995.63;4998091;28;20676;-55
2022/05/04 05:21:45;;;;;;;14.00;12.60;;;;;;;9.58;100.00;97003.00;5043306;28;20322;-51
2022/05/04 05:24:14;;;;;;;12.27;11.33;;;;;;;9.42;100.00;96996.88;5040831;28;20222;-57
2022/05/04 05:26:42;;;;;;;13.47;12.17;;;;;;;9.48;100.00;96996.16;5037207;28;20686;-52
2022/05/04 05:29:10;;;;;;;13.30;12.30;;;;;;;9.52;100.00;96997.44;5044026;28;20206;-56
2022/05/04 05:31:38;;;;;;;14.60;13.27;;;;;;;9.51;100.00;96992.34;5046381;28;20234;-55
2022/05/04 05:34:07;;;;;;;12.87;11.80;;;;;;;9.68;100.00;96993.78;5008404;28;21493;-51
2022/05/04 05:36:36;;;;;;;13.57;12.30;;;;;;;10.01;100.00;96994.41;5046417;28;20286;-55
2022/05/04 05:39:05;;;;;;;14.40;13.30;;;;;;;10.34;100.00;96992.13;5028676;28;20371;-54
2022/05/04 05:41:33;;;;;;;13.17;12.10;;;;;;;10.61;100.00;97000.38;5046717;28;20317;-54
2022/05/04 05:44:01;;;;;;;13.47;12.47;;;;;;;10.84;100.00;96999.38;5033512;28;20551;-51
2022/05/04 05:46:30;;;;;;;15.00;13.63;;;;;;;11.06;100.00;97004.66;5043660;28;20738;-57
2022/05/04 05:48:58;;;;;;;13.27;12.17;;;;;;;11.35;100.00;97008.94;5007008;28;20783;-55
2022/05/04 05:51:26;;;;;;;13.60;12.40;;;;;;;11.23;100.00;97019.28;5046156;28;20353;-56
2022/05/04 05:53:55;;;;;;;12.40;11.30;;;;;;;11.41;100.00;97016.16;5044888;28;20420;-58
2022/05/04 05:56:24;;;;;;;12.80;11.80;;;;;;;11.39;100.00;97017.34;5036772;28;20591;-55
2022/05/04 05:58:52;;;;;;;13.67;12.27;;;;;;;11.49;100.00;97020.47;5031698;28;20535;-58
2022/05/04 06:01:20;;;;;;;12.57;11.57;;;;;;;11.66;100.00;97012.25;5050276;28;20694;-56
2022/05/04 06:03:50;;;;;;;12.00;11.10;;;;;;;11.90;100.00;97000.31;5045475;28;20301;-53
2022/05/04 06:06:18;;;;;;;12.60;11.50;;;;;;;12.11;100.00;97012.69;4984046;28;20290;-57
2022/05/04 06:08:46;;;;;;;12.10;11.20;;;;;;;12.26;100.00;97009.06;5019705;28;20500;-53
2022/05/04 06:11:14;;;;;;;11.40;10.60;;;;;;;12.40;100.00;97010.75;5034201;28;20231;-56
2022/05/04 06:13:44;;;;;;;10.00;9.30;;;;;;;12.46;100.00;97011.78;5000398;28;20943;-53
2022/05/04 06:16:12;;;;;;;10.67;9.67;;;;;;;12.83;100.00;97011.47;5047570;28;20605;-52
2022/05/04 06:18:40;;;;;;;10.97;10.17;;;;;;;12.62;100.00;97010.59;5040902;28;20203;-54
2022/05/04 06:21:08;;;;;;;10.50;9.53;;;;;;;12.67;100.00;97013.47;5006141;28;20219;-53
2022/05/04 06:23:37;;;;;;;10.70;9.70;;;;;;;12.98;100.00;97012.06;5037633;28;20295;-53
2022/05/04 06:26:05;;;;;;;10.17;9.20;;;;;;;13.08;100.00;97013.53;5043235;28;20334;-53
2022/05/04 06:28:33;;;;;;;10.17;9.37;;;;;;;13.18;100.00;97016.59;5003133;28;20203;-58
2022/05/04 06:36:34;;;;;;;9.23;8.53;;;;;;;14.25;100.00;97012.13;5004001;28;20222;-59
2022/05/04 06:39:03;;;;;;;8.97;8.37;;;;;;;14.39;100.00;97011.00;5043995;28;20210;-55
2022/05/04 06:41:32;;;;;;;10.17;9.37;;;;;;;14.72;100.00;97015.38;5038432;28;20288;-56
2022/05/04 06:44:00;;;;;;;9.13;8.53;;;;;;;15.03;100.00;97013.75;5015682;28;20356;-56
2022/05/04 06:46:29;;;;;;;9.77;9.07;;;;;;;15.26;100.00;97006.16;5025603;28;20207;-54
2022/05/04 06:48:58;;;;;;;9.80;9.00;;;;;;;15.55;100.00;97012.69;5039689;28;20253;-55
2022/05/04 06:51:26;;;;;;;10.20;9.40;;;;;;;15.52;100.00;97010.44;5044119;28;20270;-58
2022/05/04 06:53:54;;;;;;;9.90;9.00;;;;;;;16.09;100.00;97009.47;5006364;28;20321;-54
2022/05/04 06:56:42;;;;;;;8.83;8.13;;;;;;;16.57;100.00;97015.84;5040481;28;20230;-55
2022/05/04 06:59:10;;;;;;;8.90;8.27;;;;;;;16.82;100.00;97014.91;5023208;28;20208;-54
2022/05/04 07:01:46;;;;;;;13.37;12.07;;;;;;;17.29;100.00;97022.25;5022070;28;20435;-55
2022/05/04 07:04:14;;;;;;;9.63;8.93;;;;;;;17.47;100.00;97017.84;5047051;28;20229;-52
2022/05/04 07:06:42;;;;;;;7.97;7.47;;;;;;;17.36;100.00;97014.94;5038414;28;20816;-54
2022/05/04 07:09:10;;;;;;;8.83;8.13;;;;;;;17.30;100.00;97012.34;5003140;28;20281;-58
2022/05/04 07:11:38;;;;;;;9.00;8.27;;;;;;;17.01;100.00;97014.84;5042162;28;20297;-56
2022/05/04 07:14:06;;;;;;;8.80;8.10;;;;;;;16.61;100.00;97018.91;5022960;28;20238;-58
2022/05/04 07:16:34;;;;;;;9.80;8.33;;;;;;;16.31;100.00;97017.03;5021181;28;20224;-59
2022/05/04 07:19:14;;;;;;;9.13;8.43;;;;;;;15.99;100.00;97017.19;5041932;28;20685;-55
2022/05/04 07:21:45;;;;;;;9.37;8.57;;;;;;;15.94;100.00;97017.88;5036990;28;20416;-56
2022/05/04 07:24:14;;;;;;;9.03;8.27;;;;;;;15.82;100.00;97016.94;5043951;28;20552;-56
2022/05/04 07:26:42;;;;;;;11.03;8.70;;;;;;;15.70;100.00;97019.50;5000157;28;20234;-56
2022/05/04 07:29:10;;;;;;;9.00;8.40;;;;;;;15.62;100.00;97017.97;5046674;28;20225;-52
2022/05/04 07:31:42;;;;;;;8.30;7.70;;;;;;;15.64;100.00;97021.22;5026106;28;20467;-51
2022/05/04 07:34:10;;;;;;;8.43;7.73;;;;;;;15.73;100.00;97025.25;5046917;28;20230;-53
2022/05/04 07:36:40;;;;;;;8.37;7.53;;;;;;;15.79;100.00;97026.22;5039462;28;21310;-53
2022/05/04 07:39:08;;;;;;;8.00;7.50;;;;;;;15.88;100.00;97026.75;5040722;28;20537;-53
2022/05/04 07:44:21;;;;;;;10.50;9.43;;;;;;;15.85;100.00;97028.00;5022968;28;20308;-57
2022/05/04 07:46:49;;;;;;;8.83;8.13;;;;;;;15.70;100.00;97030.19;5023397;28;20221;-51
2022/05/04 07:49:18;;;;;;;7.20;6.70;;;;;;;15.45;100.00;97031.88;5038284;28;20289;-56
2022/05/04 07:51:47;;;;;;;8.00;7.37;;;;;;;15.63;100.00;97028.41;5043771;28;20431;-55
2022/05/04 07:54:16;;;;;;;8.10;7.27;;;;;;;15.79;100.00;97034.25;5043342;28;20290;-55
2022/05/04 07:56:44;;;;;;;7.47;6.87;;;;;;;15.96;100.00;97033.66;4996815;28;20219;-56
2022/05/04 07:59:12;;;;;;;8.13;7.53;;;;;;;16.11;100.00;97031.47;5040512;28;20207;-53
2022/05/04 08:04:34;;;;;;;9.83;8.23;;;;;;;16.23;100.00;97038.72;5001488;28;20416;-56
2022/05/04 08:07:04;;;;;;;9.17;8.37;;;;;;;16.25;100.00;97044.66;5006053;28;20223;-55
2022/05/04 08:09:34;;;;;;;11.23;10.33;;;;;;;16.32;100.00;97034.69;5008235;28;20263;-57
2022/05/04 08:12:02;;;;;;;11.17;10.27;;;;;;;16.51;100.00;97034.69;4964406;28;20235;-55
2022/05/04 08:14:30;;;;;;;8.07;7.23;;;;;;;16.64;100.00;97039.84;5003062;28;20331;-58
2022/05/04 08:16:58;;;;;;;7.43;6.93;;;;;;;16.77;100.00;97036.97;4988508;28;20293;-54
2022/05/04 08:19:27;;;;;;;9.37;8.30;;;;;;;16.87;100.00;97038.31;5004342;28;20589;-57
2022/05/04 08:21:56;;;;;;;9.87;8.87;;;;;;;16.94;100.00;97044.38;5006614;28;20621;-55
2022/05/04 08:24:26;;;;;;;9.13;8.43;;;;;;;16.92;100.00;97044.59;5002725;28;20469;-58
2022/05/04 08:26:54;;;;;;;8.77;7.97;;;;;;;16.66;100.00;97042.28;4962786;28;20250;-55
2022/05/04 08:29:23;;;;;;;8.37;7.77;;;;;;;16.68;100.00;97041.03;5004862;28;20203;-53
2022/05/04 08:31:51;;;;;;;9.83;8.93;;;;;;;16.66;100.00;97051.13;4989278;28;20228;-55
2022/05/04 08:34:19;;;;;;;8.83;7.90;;;;;;;16.67;100.00;97052.78;4998665;28;20215;-56
2022/05/04 08:36:47;;;;;;;8.77;8.07;;;;;;;16.60;100.00;97050.19;5004267;28;20239;-57
2022/05/04 08:39:16;;;;;;;8.63;7.83;;;;;;;16.61;100.00;97051.00;5003979;28;20333;-54
2022/05/04 08:41:45;;;;;;;10.90;8.67;;;;;;;16.74;100.00;97058.84;5035521;28;20354;-54
2022/05/04 08:44:14;;;;;;;8.80;8.10;;;;;;;17.01;100.00;97055.84;4996786;28;20296;-55
2022/05/04 08:46:44;;;;;;;8.73;7.83;;;;;;;16.91;100.00;97056.34;5022064;28;20515;-56
2022/05/04 08:49:14;;;;;;;9.27;8.40;;;;;;;16.95;100.00;97062.06;5049587;28;20639;-50
2022/05/04 08:51:42;;;;;;;10.40;9.43;;;;;;;17.14;100.00;97056.66;5037187;28;20314;-53
2022/05/04 08:54:10;;;;;;;9.93;8.97;;;;;;;17.06;100.00;97060.50;5039449;28;20329;-54
2022/05/04 08:56:38;;;;;;;10.20;9.10;;;;;;;17.06;100.00;97053.28;5041589;28;20381;-53
2022/05/04 08:59:09;;;;;;;9.47;8.77;;;;;;;16.98;100.00;97053.63;4998700;28;20715;-53
2022/05/04 09:01:39;;;;;;;9.13;8.43;;;;;;;16.92;100.00;97057.97;5019086;28;20654;-58
2022/05/04 09:04:07;;;;;;;10.40;9.50;;;;;;;17.03;100.00;97053.75;5041669;28;20693;-55
2022/05/04 09:06:42;;;;;;;9.27;8.57;;;;;;;17.06;100.00;97057.84;5022211;28;20322;-58
2022/05/04 09:09:11;;;;;;;10.43;9.53;;;;;;;16.87;100.00;97062.41;5036984;28;21035;-51
2022/05/04 09:11:40;;;;;;;12.50;9.37;;;;;;;17.08;100.00;97063.78;5039318;28;20492;-52
2022/05/04 09:14:10;;;;;;;9.00;8.40;;;;;;;17.12;100.00;97064.13;5041385;28;20314;-53
2022/05/04 09:16:39;;;;;;;9.97;9.17;;;;;;;17.07;100.00;97059.47;4999116;28;20929;-51
2022/05/04 09:19:08;;;;;;;9.93;9.00;;;;;;;17.31;100.00;97063.00;5030707;28;20208;-56
2022/05/04 09:21:37;;;;;;;10.97;9.37;;;;;;;17.38;100.00;97060.19;5042661;28;20278;-54
2022/05/04 09:24:07;;;;;;;8.87;8.17;;;;;;;17.30;100.00;97056.00;5038660;28;20273;-57
2022/05/04 09:26:40;;;;;;;9.70;8.67;;;;;;;17.01;100.00;97055.84;5035241;28;20223;-56
2022/05/04 09:29:12;;;;;;;7.47;7.00;;;;;;;16.94;100.00;97055.09;5040607;28;20239;-50
2022/05/04 09:31:42;;;;;;;11.33;10.30;;;;;;;16.99;100.00;97057.91;5000120;28;20397;-54
2022/05/04 09:34:10;;;;;;;10.43;9.63;;;;;;;16.94;100.00;97057.75;5022679;28;20211;-56
2022/05/04 09:44:53;;;;;;;9.93;9.03;;;;;;;16.64;100.00;97055.91;5025590;28;20442;-54
2022/05/04 09:45:10;;;;;;;6.87;6.47;;;;;;;16.36;100.00;97051.91;5045170;28;20212;-57
2022/05/04 09:47:38;;;;;;;6.97;6.33;;;;;;;16.24;100.00;97053.72;5011190;28;20303;-53
2022/05/04 09:50:09;;;;;;;10.10;7.10;;;;;;;16.44;100.00;97053.47;5029414;28;20233;-56
2022/05/04 09:52:42;;;;;;;7.10;6.60;;;;;;;16.26;100.00;97059.66;5028092;28;20238;-57
2022/05/04 09:55:15;;;;;;;6.90;6.40;;;;;;;15.98;100.00;97058.31;5039512;28;20214;-57
2022/05/04 09:57:43;;;;;;;6.93;6.43;;;;;;;15.92;100.00;97057.38;5036909;28;20227;-56
2022/05/04 10:00:14;;;;;;;6.00;5.60;;;;;;;15.94;100.00;97049.09;5037095;28;20224;-56
2022/05/04 10:02:44;;;;;;;5.77;5.37;;;;;;;16.09;100.00;97057.56;5002592;28;20546;-54
2022/05/04 10:05:13;;;;;;;5.43;5.03;;;;;;;16.09;100.00;97046.06;5030012;28;20495;-58
2022/05/04 10:07:42;;;;;;;8.27;7.57;;;;;;;15.84;100.00;97052.25;5047579;28;20236;-55
2022/05/04 10:10:14;;;;;;;5.20;4.90;;;;;;;16.18;100.00;97044.72;5036405;28;20227;-57
2022/05/04 10:12:43;;;;;;;4.57;4.27;;;;;;;16.33;100.00;97047.03;5049968;28;20573;-52
2022/05/04 10:15:15;;;;;;;4.23;3.93;;;;;;;16.58;100.00;97040.75;5040581;28;20227;-57
2022/05/04 10:17:47;;;;;;;2.73;2.63;;;;;;;16.81;100.00;97040.03;5008749;28;20246;-52
2022/05/04 10:20:19;;;;;;;3.53;3.23;;;;;;;17.15;100.00;97035.03;5027137;28;20224;-59
2022/05/04 10:22:55;;;;;;;4.53;4.23;;;;;;;17.35;100.00;97033.88;5044790;28;20952;-53
2022/05/04 10:25:24;;;;;;;4.53;4.23;;;;;;;17.40;100.00;97033.19;5034773;28;20214;-53
2022/05/04 10:28:05;;;;;;;4.87;4.47;;;;;;;17.74;100.00;97018.16;5043005;28;20205;-53
2022/05/04 10:30:34;;;;;;;4.40;4.10;;;;;;;18.16;100.00;97019.91;5042108;28;20226;-53
2022/05/04 10:33:05;;;;;;;3.73;3.30;;;;;;;18.49;100.00;97013.03;5028876;28;20218;-56
2022/05/04 10:35:37;;;;;;;8.43;7.33;;;;;;;18.90;100.00;97014.84;5014943;28;22674;-56
2022/05/04 10:38:08;;;;;;;10.47;9.57;;;;;;;19.03;100.00;97014.53;5046125;28;20222;-56
2022/05/04 10:40:37;;;;;;;6.50;5.90;;;;;;;19.11;100.00;97004.47;5027971;28;20768;-53
2022/05/04 10:43:08;;;;;;;4.37;4.10;;;;;;;19.44;100.00;97000.13;5044093;28;20286;-55
2022/05/04 10:45:38;;;;;;;4.40;4.10;;;;;;;19.72;100.00;96993.84;5041583;28;20463;-55
2022/05/04 10:48:28;;;;;;;3.70;3.40;;;;;;;19.80;86.43;96985.34;5025080;28;20296;-59
2022/05/04 10:51:05;;;;;;;3.63;3.43;;;;;;;20.21;77.67;96979.69;5048799;28;20303;-55
2022/05/04 10:53:41;;;;;;;4.00;3.70;;;;;;;19.94;82.93;96972.41;5032381;28;20308;-56
2022/05/04 10:56:10;;;;;;;3.50;3.20;;;;;;;20.28;77.98;96960.66;5028061;28;20330;-57
2022/05/04 10:58:42;;;;;;;2.77;2.67;;;;;;;20.47;71.51;96971.09;5045587;28;20250;-51
2022/05/04 11:01:14;;;;;;;3.60;3.30;;;;;;;20.32;72.46;96958.31;5038979;28;20218;-55
2022/05/04 11:03:56;;;;;;;2.57;2.37;;;;;;;20.25;79.35;96953.09;5004731;28;20215;-53
2022/05/04 11:06:29;;;;;;;4.60;2.73;;;;;;;20.27;66.63;96952.84;5029276;28;21925;-55
2022/05/04 11:08:59;;;;;;;3.13;2.93;;;;;;;20.03;72.33;96942.38;5050913;28;20566;-55
2022/05/04 11:11:28;;;;;;;2.80;2.70;;;;;;;19.73;67.77;96940.91;5035736;28;20978;-53
2022/05/04 11:13:56;;;;;;;3.40;3.20;;;;;;;19.60;73.64;96939.38;5038579;28;20208;-56
2022/05/04 11:16:28;;;;;;;2.77;2.57;;;;;;;19.65;65.44;96934.06;5039496;28;20602;-56
2022/05/04 11:18:56;;;;;;;2.20;2.10;;;;;;;19.52;62.82;96928.00;5043799;28;20802;-53
2022/05/04 11:21:27;;;;;;;2.37;2.27;;;;;;;19.38;64.59;96924.84;5007908;28;20520;-49
2022/05/04 11:23:56;;;;;;;2.00;1.90;;;;;;;19.15;61.35;96933.91;5034812;28;20215;-52
2022/05/04 11:26:26;;;;;;;3.13;2.57;;;;;;;19.19;67.27;96939.63;5026509;28;20785;-50
2022/05/04 11:28:55;;;;;;;2.80;2.60;;;;;;;19.30;64.56;96927.97;5049452;28;20199;-51
2022/05/04 11:31:23;;;;;;;2.30;2.20;;;;;;;19.37;61.89;96919.75;5042145;28;20228;-53
2022/05/04 11:33:53;;;;;;;3.20;3.00;;;;;;;19.51;62.63;96923.69;5048949;28;20805;-55
2022/05/04 11:36:23;;;;;;;3.23;3.03;;;;;;;19.60;56.26;96929.47;5003664;28;20426;-49
2022/05/04 11:38:52;;;;;;;2.77;2.57;;;;;;;19.82;59.03;96928.63;5022705;28;20239;-55
2022/05/04 11:41:20;;;;;;;2.33;2.10;;;;;;;19.67;55.21;96929.25;5038387;28;20448;-53
2022/05/04 11:43:50;;;;;;;4.60;3.07;;;;;;;19.63;54.42;96923.59;5043223;28;20199;-51
2022/05/04 11:46:18;;;;;;;6.07;5.57;;;;;;;19.71;52.95;96925.03;5023612;28;20426;-53
2022/05/04 11:48:48;;;;;;;2.50;2.20;;;;;;;19.58;51.02;96926.22;5044021;28;20199;-52
2022/05/04 11:51:17;;;;;;;2.63;2.47;;;;;;;19.65;53.03;96926.00;4999333;28;20227;-55
2022/05/04 11:53:46;;;;;;;2.80;2.50;;;;;;;19.66;57.10;96928.47;5042770;28;20761;-52
2022/05/04 11:56:14;;;;;;;2.63;2.43;;;;;;;19.84;51.96;96926.50;5007174;28;20557;-58